sensor_id;sensor_type;location;lat;lon;timestamp;temperature;humidity
20384;DHT22;46458;50.966;7.002;2022-09-28T00:02:00;10.00;99.90
20384;DHT22;46458;50.966;7.002;2022-09-28T00:04:29;9.80;99.90
20384;DHT22;46458;50.966;7.002;2022-09-28T00:06:58;10.10;99.90
20384;DHT22;46458;50.966;7.002;2022-09-28T00:09:27;9.80;99.90
20384;DHT22;46458;50.966;7.002;2022-09-28T00:11:55;9.80;99.90
20384;DHT22;46458;50.966;7.002;2022-09-28T00:14:27;9.50;99.90
20384;DHT22;46458;50.966;7.002;2022-09-28T00:16:57;10.20;99.90
20384;DHT22;46458;50.966;7.002;2022-09-28T00:19:28;9.80;99.90
20384;DHT22;46458;50.966;7.002;2022-09-28T00:21:57;9.80;99.90
20384;DHT22;46458;50.966;7.002;2022-09-28T00:24:26;9.80;99.90
20384;DHT22;46458;50.966;7.002;2022-09-28T00:26:58;9.50;99.90
20384;DHT22;46458;50.966;7.002;2022-09-28T00:29:29;10.30;99.90
20384;DHT22;46458;50.966;7.002;2022-09-28T00:32:01;9.80;99.90
20384;DHT22;46458;50.966;7.002;2022-09-28T00:34:34;9.70;99.90
20384;DHT22;46458;50.966;7.002;2022-09-28T00:37:05;9.70;99.90
20384;DHT22;46458;50.966;7.002;2022-09-28T00:39:35;9.70;99.90
20384;DHT22;46458;50.966;7.002;2022-09-28T00:42:10;9.70;99.90
20384;DHT22;46458;50.966;7.002;2022-09-28T00:44:50;9.70;99.90
20384;DHT22;46458;50.966;7.002;2022-09-28T00:47:40;9.50;99.90
20384;DHT22;46458;50.966;7.002;2022-09-28T00:50:17;9.80;99.90
20384;DHT22;46458;50.966;7.002;2022-09-28T00:52:51;9.70;99.90
20384;DHT22;46458;50.966;7.002;2022-09-28T00:55:25;9.70;99.90
20384;DHT22;46458;50.966;7.002;2022-09-28T00:57:59;9.60;99.90
20384;DHT22;46458;50.966;7.002;2022-09-28T01:00:29;9.20;99.90
20384;DHT22;46458;50.966;7.002;2022-09-28T01:02:58;9.70;99.90
20384;DHT22;46458;50.966;7.002;2022-09-28T01:05:30;9.80;99.90
20384;DHT22;46458;50.966;7.002;2022-09-28T01:08:02;9.80;99.90
20384;DHT22;46458;50.966;7.002;2022-09-28T01:10:35;9.60;99.90
20384;DHT22;46458;50.966;7.002;2022-09-28T01:13:04;9.60;99.90
20384;DHT22;46458;50.966;7.002;2022-09-28T01:15:39;9.50;99.90
20384;DHT22;46458;50.966;7.002;2022-09-28T01:18:16;9.70;99.90
20384;DHT22;46458;50.966;7.002;2022-09-28T01:21:00;9.60;99.90
20384;DHT22;46458;50.966;7.002;2022-09-28T01:23:53;9.70;99.90
20384;DHT22;46458;50.966;7.002;2022-09-28T01:26:47;9.70;99.90
20384;DHT22;46458;50.966;7.002;2022-09-28T01:29:24;9.50;99.90
20384;DHT22;46458;50.966;7.002;2022-09-28T01:32:02;9.80;99.90
20384;DHT22;46458;50.966;7.002;2022-09-28T01:34:38;9.60;99.90
20384;DHT22;46458;50.966;7.002;2022-09-28T01:37:13;9.70;99.90
20384;DHT22;46458;50.966;7.002;2022-09-28T01:39:46;9.50;99.90
20384;DHT22;46458;50.966;7.002;2022-09-28T01:42:22;9.50;99.90
20384;DHT22;46458;50.966;7.002;2022-09-28T01:44:55;9.50;99.90
20384;DHT22;46458;50.966;7.002;2022-09-28T01:47:26;9.40;99.90
20384;DHT22;46458;50.966;7.002;2022-09-28T01:50:01;9.50;99.90
20384;DHT22;46458;50.966;7.002;2022-09-28T01:52:35;9.70;99.90
20384;DHT22;46458;50.966;7.002;2022-09-28T01:55:09;9.70;99.90
20384;DHT22;46458;50.966;7.002;2022-09-28T01:57:48;9.80;99.90
20384;DHT22;46458;50.966;7.002;2022-09-28T02:00:18;9.60;99.90
20384;DHT22;46458;50.966;7.002;2022-09-28T02:02:53;9.60;99.90
20384;DHT22;46458;50.966;7.002;2022-09-28T02:05:35;9.70;99.90
20384;DHT22;46458;50.966;7.002;2022-09-28T02:08:07;9.70;99.90
20384;DHT22;46458;50.966;7.002;2022-09-28T02:10:41;9.60;99.90
20384;DHT22;46458;50.966;7.002;2022-09-28T02:13:17;9.50;99.90
20384;DHT22;46458;50.966;7.002;2022-09-28T02:15:51;9.70;99.90
20384;DHT22;46458;50.966;7.002;2022-09-28T02:18:20;9.50;99.90
20384;DHT22;46458;50.966;7.002;2022-09-28T02:20:56;9.60;99.90
20384;DHT22;46458;50.966;7.002;2022-09-28T02:23:29;9.80;99.90
20384;DHT22;46458;50.966;7.002;2022-09-28T02:26:05;9.50;99.90
20384;DHT22;46458;50.966;7.002;2022-09-28T02:28:39;9.40;99.90
20384;DHT22;46458;50.966;7.002;2022-09-28T02:31:08;9.60;99.90
20384;DHT22;46458;50.966;7.002;2022-09-28T02:33:39;9.50;99.90
20384;DHT22;46458;50.966;7.002;2022-09-28T02:36:11;9.50;99.90
20384;DHT22;46458;50.966;7.002;2022-09-28T02:38:41;9.80;99.90
20384;DHT22;46458;50.966;7.002;2022-09-28T02:41:22;9.80;99.90
20384;DHT22;46458;50.966;7.002;2022-09-28T02:44:04;9.60;99.90
20384;DHT22;46458;50.966;7.002;2022-09-28T02:46:44;9.60;99.90
20384;DHT22;46458;50.966;7.002;2022-09-28T02:49:29;10.00;99.90
20384;DHT22;46458;50.966;7.002;2022-09-28T02:52:19;9.60;99.90
20384;DHT22;46458;50.966;7.002;2022-09-28T02:55:05;9.70;99.90
20384;DHT22;46458;50.966;7.002;2022-09-28T02:57:46;9.70;99.90
20384;DHT22;46458;50.966;7.002;2022-09-28T03:00:21;9.70;99.90
20384;DHT22;46458;50.966;7.002;2022-09-28T03:02:59;9.70;99.90
20384;DHT22;46458;50.966;7.002;2022-09-28T03:05:36;9.70;99.90
20384;DHT22;46458;50.966;7.002;2022-09-28T03:08:12;9.90;99.90
20384;DHT22;46458;50.966;7.002;2022-09-28T03:10:49;9.80;99.90
20384;DHT22;46458;50.966;7.002;2022-09-28T03:13:24;9.80;99.90
20384;DHT22;46458;50.966;7.002;2022-09-28T03:16:07;9.60;99.90
20384;DHT22;46458;50.966;7.002;2022-09-28T03:18:37;10.00;99.90
20384;DHT22;46458;50.966;7.002;2022-09-28T03:21:07;9.70;99.90
20384;DHT22;46458;50.966;7.002;2022-09-28T03:23:37;9.70;99.90
20384;DHT22;46458;50.966;7.002;2022-09-28T03:26:07;9.70;99.90
20384;DHT22;46458;50.966;7.002;2022-09-28T03:28:36;9.70;99.90
20384;DHT22;46458;50.966;7.002;2022-09-28T03:31:11;9.70;99.90
20384;DHT22;46458;50.966;7.002;2022-09-28T03:33:40;9.80;99.90
20384;DHT22;46458;50.966;7.002;2022-09-28T03:36:09;9.80;99.90
20384;DHT22;46458;50.966;7.002;2022-09-28T03:38:39;9.80;99.90
20384;DHT22;46458;50.966;7.002;2022-09-28T03:41:12;9.70;99.90
20384;DHT22;46458;50.966;7.002;2022-09-28T03:43:42;9.30;99.90
20384;DHT22;46458;50.966;7.002;2022-09-28T03:46:15;9.80;99.90
20384;DHT22;46458;50.966;7.002;2022-09-28T03:48:48;9.80;99.90
20384;DHT22;46458;50.966;7.002;2022-09-28T03:51:17;9.80;99.90
20384;DHT22;46458;50.966;7.002;2022-09-28T03:53:46;9.40;99.90
20384;DHT22;46458;50.966;7.002;2022-09-28T03:56:15;10.00;99.90
20384;DHT22;46458;50.966;7.002;2022-09-28T03:58:44;9.80;99.90
20384;DHT22;46458;50.966;7.002;2022-09-28T04:01:17;9.80;99.90
20384;DHT22;46458;50.966;7.002;2022-09-28T04:03:46;9.90;99.90
20384;DHT22;46458;50.966;7.002;2022-09-28T04:06:20;9.80;99.90
20384;DHT22;46458;50.966;7.002;2022-09-28T04:08:49;9.90;99.90
20384;DHT22;46458;50.966;7.002;2022-09-28T04:11:18;9.80;99.90
20384;DHT22;46458;50.966;7.002;2022-09-28T04:13:49;9.70;99.90
20384;DHT22;46458;50.966;7.002;2022-09-28T04:16:20;9.90;99.90
20384;DHT22;46458;50.966;7.002;2022-09-28T04:18:58;10.00;99.90
20384;DHT22;46458;50.966;7.002;2022-09-28T04:21:37;9.80;99.90
20384;DHT22;46458;50.966;7.002;2022-09-28T04:24:12;9.70;99.90
20384;DHT22;46458;50.966;7.002;2022-09-28T04:26:41;9.80;99.90
20384;DHT22;46458;50.966;7.002;2022-09-28T04:29:11;9.90;99.90
20384;DHT22;46458;50.966;7.002;2022-09-28T04:31:46;9.70;99.90
20384;DHT22;46458;50.966;7.002;2022-09-28T04:34:17;10.00;99.90
20384;DHT22;46458;50.966;7.002;2022-09-28T04:36:47;9.70;99.90
20384;DHT22;46458;50.966;7.002;2022-09-28T04:39:18;9.90;99.90
20384;DHT22;46458;50.966;7.002;2022-09-28T04:44:19;9.80;99.90
20384;DHT22;46458;50.966;7.002;2022-09-28T04:46:54;9.80;99.90
20384;DHT22;46458;50.966;7.002;2022-09-28T04:49:28;9.60;99.90
20384;DHT22;46458;50.966;7.002;2022-09-28T04:52:26;10.20;99.90
20384;DHT22;46458;50.966;7.002;2022-09-28T04:54:55;9.90;99.90
20384;DHT22;46458;50.966;7.002;2022-09-28T04:57:24;9.80;99.90
20384;DHT22;46458;50.966;7.002;2022-09-28T04:59:54;9.90;99.90
20384;DHT22;46458;50.966;7.002;2022-09-28T05:02:28;9.80;99.90
20384;DHT22;46458;50.966;7.002;2022-09-28T05:05:15;9.80;99.90
20384;DHT22;46458;50.966;7.002;2022-09-28T05:08:15;9.90;99.90
20384;DHT22;46458;50.966;7.002;2022-09-28T05:10:44;9.80;99.90
20384;DHT22;46458;50.966;7.002;2022-09-28T05:13:14;9.70;99.90
20384;DHT22;46458;50.966;7.002;2022-09-28T05:15:43;9.70;99.90
20384;DHT22;46458;50.966;7.002;2022-09-28T05:18:15;9.70;99.90
20384;DHT22;46458;50.966;7.002;2022-09-28T05:20:50;9.80;99.90
20384;DHT22;46458;50.966;7.002;2022-09-28T05:23:18;9.90;99.90
20384;DHT22;46458;50.966;7.002;2022-09-28T05:25:48;9.70;99.90
20384;DHT22;46458;50.966;7.002;2022-09-28T05:28:26;9.60;99.90
20384;DHT22;46458;50.966;7.002;2022-09-28T05:31:27;9.70;99.90
20384;DHT22;46458;50.966;7.002;2022-09-28T05:34:25;9.60;99.90
20384;DHT22;46458;50.966;7.002;2022-09-28T05:36:54;9.80;99.90
20384;DHT22;46458;50.966;7.002;2022-09-28T05:39:23;9.80;99.90
20384;DHT22;46458;50.966;7.002;2022-09-28T05:41:53;9.80;99.90
20384;DHT22;46458;50.966;7.002;2022-09-28T05:44:23;9.70;99.90
20384;DHT22;46458;50.966;7.002;2022-09-28T05:46:53;9.70;99.90
20384;DHT22;46458;50.966;7.002;2022-09-28T05:49:24;9.80;99.90
20384;DHT22;46458;50.966;7.002;2022-09-28T05:51:54;9.80;99.90
20384;DHT22;46458;50.966;7.002;2022-09-28T05:54:23;9.60;99.90
20384;DHT22;46458;50.966;7.002;2022-09-28T05:56:52;9.80;99.90
20384;DHT22;46458;50.966;7.002;2022-09-28T05:59:21;9.90;99.90
20384;DHT22;46458;50.966;7.002;2022-09-28T06:01:50;9.90;99.90
20384;DHT22;46458;50.966;7.002;2022-09-28T06:04:19;9.80;99.90
20384;DHT22;46458;50.966;7.002;2022-09-28T06:06:50;10.00;99.90
20384;DHT22;46458;50.966;7.002;2022-09-28T06:09:20;9.70;99.90
20384;DHT22;46458;50.966;7.002;2022-09-28T06:12:01;9.50;99.90
20384;DHT22;46458;50.966;7.002;2022-09-28T06:14:40;9.80;99.90
20384;DHT22;46458;50.966;7.002;2022-09-28T06:17:10;9.80;99.90
20384;DHT22;46458;50.966;7.002;2022-09-28T06:19:39;9.80;99.90
20384;DHT22;46458;50.966;7.002;2022-09-28T06:22:30;9.70;99.90
20384;DHT22;46458;50.966;7.002;2022-09-28T06:25:05;10.00;99.90
20384;DHT22;46458;50.966;7.002;2022-09-28T06:27:34;9.80;99.90
20384;DHT22;46458;50.966;7.002;2022-09-28T06:30:08;9.70;99.90
20384;DHT22;46458;50.966;7.002;2022-09-28T06:32:38;9.90;99.90
20384;DHT22;46458;50.966;7.002;2022-09-28T06:35:09;9.80;99.90
20384;DHT22;46458;50.966;7.002;2022-09-28T06:37:43;9.60;99.90
20384;DHT22;46458;50.966;7.002;2022-09-28T06:40:15;9.80;99.90
20384;DHT22;46458;50.966;7.002;2022-09-28T06:42:44;9.80;99.90
20384;DHT22;46458;50.966;7.002;2022-09-28T06:45:51;9.90;99.90
20384;DHT22;46458;50.966;7.002;2022-09-28T06:48:31;9.80;99.90
20384;DHT22;46458;50.966;7.002;2022-09-28T06:51:01;9.90;99.90
20384;DHT22;46458;50.966;7.002;2022-09-28T06:53:41;10.00;99.90
20384;DHT22;46458;50.966;7.002;2022-09-28T06:56:20;9.90;99.90
20384;DHT22;46458;50.966;7.002;2022-09-28T06:58:49;9.80;99.90
20384;DHT22;46458;50.966;7.002;2022-09-28T07:01:17;9.90;99.90
20384;DHT22;46458;50.966;7.002;2022-09-28T07:04:10;9.80;99.90
20384;DHT22;46458;50.966;7.002;2022-09-28T07:06:57;10.00;99.90
20384;DHT22;46458;50.966;7.002;2022-09-28T07:09:51;9.90;99.90
20384;DHT22;46458;50.966;7.002;2022-09-28T07:12:40;10.00;99.90
20384;DHT22;46458;50.966;7.002;2022-09-28T07:15:23;10.40;99.90
20384;DHT22;46458;50.966;7.002;2022-09-28T07:17:55;10.00;99.90
20384;DHT22;46458;50.966;7.002;2022-09-28T07:20:25;10.10;99.90
20384;DHT22;46458;50.966;7.002;2022-09-28T07:22:55;10.10;99.90
20384;DHT22;46458;50.966;7.002;2022-09-28T07:25:32;10.20;99.90
20384;DHT22;46458;50.966;7.002;2022-09-28T07:28:10;10.00;99.90
20384;DHT22;46458;50.966;7.002;2022-09-28T07:31:01;9.70;99.90
20384;DHT22;46458;50.966;7.002;2022-09-28T07:34:09;9.90;99.90
20384;DHT22;46458;50.966;7.002;2022-09-28T07:36:58;9.90;99.90
20384;DHT22;46458;50.966;7.002;2022-09-28T07:39:27;9.90;99.90
20384;DHT22;46458;50.966;7.002;2022-09-28T07:41:59;10.10;99.90
20384;DHT22;46458;50.966;7.002;2022-09-28T07:44:25;10.20;99.90
20384;DHT22;46458;50.966;7.002;2022-09-28T07:46:54;10.40;99.90
20384;DHT22;46458;50.966;7.002;2022-09-28T07:49:31;10.40;99.90
20384;DHT22;46458;50.966;7.002;2022-09-28T07:52:14;10.40;99.90
20384;DHT22;46458;50.966;7.002;2022-09-28T07:55:04;10.40;99.90
20384;DHT22;46458;50.966;7.002;2022-09-28T07:57:44;10.40;99.90
20384;DHT22;46458;50.966;7.002;2022-09-28T08:00:34;10.80;99.90
20384;DHT22;46458;50.966;7.002;2022-09-28T08:03:04;10.70;99.90
20384;DHT22;46458;50.966;7.002;2022-09-28T08:05:33;10.20;99.90
20384;DHT22;46458;50.966;7.002;2022-09-28T08:08:02;11.00;99.90
20384;DHT22;46458;50.966;7.002;2022-09-28T08:10:32;11.00;99.90
20384;DHT22;46458;50.966;7.002;2022-09-28T08:13:22;11.00;99.90
20384;DHT22;46458;50.966;7.002;2022-09-28T08:16:11;11.10;99.90
20384;DHT22;46458;50.966;7.002;2022-09-28T08:19:03;11.40;99.90
20384;DHT22;46458;50.966;7.002;2022-09-28T08:21:31;11.20;99.90
20384;DHT22;46458;50.966;7.002;2022-09-28T08:24:14;11.40;99.90
20384;DHT22;46458;50.966;7.002;2022-09-28T08:26:45;11.20;99.90
20384;DHT22;46458;50.966;7.002;2022-09-28T08:29:18;11.40;99.90
20384;DHT22;46458;50.966;7.002;2022-09-28T08:31:50;11.10;99.90
20384;DHT22;46458;50.966;7.002;2022-09-28T08:34:34;11.00;99.90
20384;DHT22;46458;50.966;7.002;2022-09-28T08:37:07;11.40;99.90
20384;DHT22;46458;50.966;7.002;2022-09-28T08:40:15;11.20;99.90
20384;DHT22;46458;50.966;7.002;2022-09-28T08:43:09;10.90;99.90
20384;DHT22;46458;50.966;7.002;2022-09-28T08:46:03;11.00;99.90
20384;DHT22;46458;50.966;7.002;2022-09-28T08:48:55;10.80;99.90
20384;DHT22;46458;50.966;7.002;2022-09-28T08:51:36;11.00;99.90
20384;DHT22;46458;50.966;7.002;2022-09-28T08:54:27;11.20;99.90
20384;DHT22;46458;50.966;7.002;2022-09-28T08:57:03;13.40;99.90
20384;DHT22;46458;50.966;7.002;2022-09-28T08:59:45;11.10;99.90
20384;DHT22;46458;50.966;7.002;2022-09-28T09:02:27;11.00;99.90
20384;DHT22;46458;50.966;7.002;2022-09-28T09:05:12;10.90;99.90
20384;DHT22;46458;50.966;7.002;2022-09-28T09:08:06;11.10;99.90
20384;DHT22;46458;50.966;7.002;2022-09-28T09:10:49;11.00;99.90
20384;DHT22;46458;50.966;7.002;2022-09-28T09:13:59;11.30;99.90
20384;DHT22;46458;50.966;7.002;2022-09-28T09:16:38;11.20;99.90
20384;DHT22;46458;50.966;7.002;2022-09-28T09:19:48;11.70;99.90
20384;DHT22;46458;50.966;7.002;2022-09-28T09:22:37;11.40;99.90
20384;DHT22;46458;50.966;7.002;2022-09-28T09:25:17;11.10;99.90
20384;DHT22;46458;50.966;7.002;2022-09-28T09:28:10;11.00;99.90
20384;DHT22;46458;50.966;7.002;2022-09-28T09:30:51;12.40;99.90
20384;DHT22;46458;50.966;7.002;2022-09-28T09:33:37;11.50;99.90
20384;DHT22;46458;50.966;7.002;2022-09-28T09:36:45;11.60;99.90
20384;DHT22;46458;50.966;7.002;2022-09-28T09:39:49;11.70;99.90
20384;DHT22;46458;50.966;7.002;2022-09-28T09:42:49;12.20;99.90
20384;DHT22;46458;50.966;7.002;2022-09-28T09:46:00;12.20;99.90
20384;DHT22;46458;50.966;7.002;2022-09-28T09:48:58;12.30;99.90
20384;DHT22;46458;50.966;7.002;2022-09-28T09:51:35;12.40;99.90
20384;DHT22;46458;50.966;7.002;2022-09-28T09:54:18;12.60;99.90
20384;DHT22;46458;50.966;7.002;2022-09-28T09:56:52;12.10;99.90
20384;DHT22;46458;50.966;7.002;2022-09-28T09:59:43;12.50;99.90
20384;DHT22;46458;50.966;7.002;2022-09-28T10:02:24;12.80;99.90
20384;DHT22;46458;50.966;7.002;2022-09-28T10:05:06;12.70;99.90
20384;DHT22;46458;50.966;7.002;2022-09-28T10:07:49;13.10;99.90
20384;DHT22;46458;50.966;7.002;2022-09-28T10:10:25;13.20;99.90
20384;DHT22;46458;50.966;7.002;2022-09-28T10:13:04;13.00;99.90
20384;DHT22;46458;50.966;7.002;2022-09-28T10:15:34;13.00;99.90
20384;DHT22;46458;50.966;7.002;2022-09-28T10:18:24;13.00;99.90
20384;DHT22;46458;50.966;7.002;2022-09-28T10:21:13;12.80;99.90
20384;DHT22;46458;50.966;7.002;2022-09-28T10:23:42;12.80;99.90
20384;DHT22;46458;50.966;7.002;2022-09-28T10:26:21;13.10;99.90
20384;DHT22;46458;50.966;7.002;2022-09-28T10:28:55;13.40;99.90
20384;DHT22;46458;50.966;7.002;2022-09-28T10:31:36;13.00;99.90
20384;DHT22;46458;50.966;7.002;2022-09-28T10:34:11;13.10;99.90
20384;DHT22;46458;50.966;7.002;2022-09-28T10:36:47;12.80;99.90
20384;DHT22;46458;50.966;7.002;2022-09-28T10:39:27;13.00;99.90
20384;DHT22;46458;50.966;7.002;2022-09-28T10:42:02;12.70;99.90
20384;DHT22;46458;50.966;7.002;2022-09-28T10:44:48;13.20;99.90
20384;DHT22;46458;50.966;7.002;2022-09-28T10:47:43;13.10;99.90
20384;DHT22;46458;50.966;7.002;2022-09-28T10:50:19;13.60;99.90
20384;DHT22;46458;50.966;7.002;2022-09-28T10:53:10;13.80;99.90
20384;DHT22;46458;50.966;7.002;2022-09-28T10:56:00;14.00;99.90
20384;DHT22;46458;50.966;7.002;2022-09-28T10:58:39;13.60;99.90
20384;DHT22;46458;50.966;7.002;2022-09-28T11:01:15;13.60;99.90
20384;DHT22;46458;50.966;7.002;2022-09-28T11:03:51;13.30;99.90
20384;DHT22;46458;50.966;7.002;2022-09-28T11:06:25;13.50;99.90
20384;DHT22;46458;50.966;7.002;2022-09-28T11:08:56;13.70;99.90
20384;DHT22;46458;50.966;7.002;2022-09-28T11:11:27;13.90;99.90
20384;DHT22;46458;50.966;7.002;2022-09-28T11:14:04;13.70;99.90
20384;DHT22;46458;50.966;7.002;2022-09-28T11:16:47;13.50;99.90
20384;DHT22;46458;50.966;7.002;2022-09-28T11:19:36;13.60;99.90
20384;DHT22;46458;50.966;7.002;2022-09-28T11:22:20;13.30;99.90
20384;DHT22;46458;50.966;7.002;2022-09-28T11:25:12;13.40;99.90
20384;DHT22;46458;50.966;7.002;2022-09-28T11:27:41;13.20;99.90
20384;DHT22;46458;50.966;7.002;2022-09-28T11:30:24;13.40;99.90
20384;DHT22;46458;50.966;7.002;2022-09-28T11:33:17;13.30;99.90
20384;DHT22;46458;50.966;7.002;2022-09-28T11:36:19;13.50;99.90
20384;DHT22;46458;50.966;7.002;2022-09-28T11:38:59;13.70;99.90
20384;DHT22;46458;50.966;7.002;2022-09-28T11:41:54;13.80;99.90
20384;DHT22;46458;50.966;7.002;2022-09-28T11:44:37;13.90;99.90
20384;DHT22;46458;50.966;7.002;2022-09-28T11:47:36;14.60;99.90
20384;DHT22;46458;50.966;7.002;2022-09-28T11:50:17;13.90;99.90
20384;DHT22;46458;50.966;7.002;2022-09-28T11:52:56;13.60;99.90
20384;DHT22;46458;50.966;7.002;2022-09-28T11:55:31;13.90;99.90
20384;DHT22;46458;50.966;7.002;2022-09-28T11:58:07;13.90;99.90
20384;DHT22;46458;50.966;7.002;2022-09-28T12:00:43;14.00;99.90
20384;DHT22;46458;50.966;7.002;2022-09-28T12:03:20;13.80;99.90
20384;DHT22;46458;50.966;7.002;2022-09-28T12:05:54;13.60;99.90
20384;DHT22;46458;50.966;7.002;2022-09-28T12:08:27;13.50;99.90
20384;DHT22;46458;50.966;7.002;2022-09-28T12:11:10;13.40;99.90
20384;DHT22;46458;50.966;7.002;2022-09-28T12:14:17;13.60;99.90
20384;DHT22;46458;50.966;7.002;2022-09-28T12:16:51;13.60;99.90
20384;DHT22;46458;50.966;7.002;2022-09-28T12:19:28;13.80;99.90
20384;DHT22;46458;50.966;7.002;2022-09-28T12:22:01;13.90;99.90
20384;DHT22;46458;50.966;7.002;2022-09-28T12:24:35;13.80;99.90
20384;DHT22;46458;50.966;7.002;2022-09-28T12:27:16;14.00;99.90
20384;DHT22;46458;50.966;7.002;2022-09-28T12:29:53;13.90;99.90
20384;DHT22;46458;50.966;7.002;2022-09-28T12:32:32;13.80;99.90
20384;DHT22;46458;50.966;7.002;2022-09-28T12:35:10;14.30;99.90
20384;DHT22;46458;50.966;7.002;2022-09-28T12:38:00;13.60;99.90
20384;DHT22;46458;50.966;7.002;2022-09-28T12:40:36;13.90;99.90
20384;DHT22;46458;50.966;7.002;2022-09-28T12:43:30;13.70;99.90
20384;DHT22;46458;50.966;7.002;2022-09-28T12:46:31;13.80;99.90
20384;DHT22;46458;50.966;7.002;2022-09-28T12:49:22;13.70;99.90
20384;DHT22;46458;50.966;7.002;2022-09-28T12:51:57;14.10;99.90
20384;DHT22;46458;50.966;7.002;2022-09-28T12:54:45;13.60;99.90
20384;DHT22;46458;50.966;7.002;2022-09-28T12:57:36;13.70;99.90
20384;DHT22;46458;50.966;7.002;2022-09-28T13:00:10;14.10;99.90
20384;DHT22;46458;50.966;7.002;2022-09-28T13:03:05;13.80;99.90
20384;DHT22;46458;50.966;7.002;2022-09-28T13:09:00;13.90;99.90
20384;DHT22;46458;50.966;7.002;2022-09-28T13:11:33;13.80;99.90
20384;DHT22;46458;50.966;7.002;2022-09-28T13:14:25;13.90;99.90
20384;DHT22;46458;50.966;7.002;2022-09-28T13:17:07;14.00;99.90
20384;DHT22;46458;50.966;7.002;2022-09-28T13:19:45;14.00;99.90
20384;DHT22;46458;50.966;7.002;2022-09-28T13:22:24;14.20;99.90
20384;DHT22;46458;50.966;7.002;2022-09-28T13:25:03;14.30;99.90
20384;DHT22;46458;50.966;7.002;2022-09-28T13:27:37;14.30;99.90
20384;DHT22;46458;50.966;7.002;2022-09-28T13:30:12;14.50;99.90
20384;DHT22;46458;50.966;7.002;2022-09-28T13:32:42;14.30;99.90
20384;DHT22;46458;50.966;7.002;2022-09-28T13:35:13;14.90;99.90
20384;DHT22;46458;50.966;7.002;2022-09-28T13:37:44;14.10;99.90
20384;DHT22;46458;50.966;7.002;2022-09-28T13:40:19;14.00;99.90
20384;DHT22;46458;50.966;7.002;2022-09-28T13:43:27;13.20;99.90
20384;DHT22;46458;50.966;7.002;2022-09-28T13:46:03;13.90;99.90
20384;DHT22;46458;50.966;7.002;2022-09-28T13:48:40;14.10;99.90
20384;DHT22;46458;50.966;7.002;2022-09-28T13:51:29;13.50;99.90
20384;DHT22;46458;50.966;7.002;2022-09-28T13:54:11;13.30;99.90
20384;DHT22;46458;50.966;7.002;2022-09-28T13:56:51;13.20;99.90
20384;DHT22;46458;50.966;7.002;2022-09-28T13:59:24;13.10;99.90
20384;DHT22;46458;50.966;7.002;2022-09-28T14:01:59;12.80;99.90
20384;DHT22;46458;50.966;7.002;2022-09-28T14:04:53;12.90;99.90
20384;DHT22;46458;50.966;7.002;2022-09-28T14:08:09;12.80;99.90
20384;DHT22;46458;50.966;7.002;2022-09-28T14:10:46;12.90;99.90
20384;DHT22;46458;50.966;7.002;2022-09-28T14:16:20;13.40;99.90
20384;DHT22;46458;50.966;7.002;2022-09-28T14:18:52;13.70;99.90
20384;DHT22;46458;50.966;7.002;2022-09-28T14:24:33;14.10;99.90
20384;DHT22;46458;50.966;7.002;2022-09-28T14:27:22;14.40;99.90
20384;DHT22;46458;50.966;7.002;2022-09-28T14:30:05;14.40;99.90
20384;DHT22;46458;50.966;7.002;2022-09-28T14:32:35;14.40;99.90
20384;DHT22;46458;50.966;7.002;2022-09-28T14:35:06;14.40;99.90
20384;DHT22;46458;50.966;7.002;2022-09-28T14:37:47;13.90;99.90
20384;DHT22;46458;50.966;7.002;2022-09-28T14:40:51;13.70;99.90
20384;DHT22;46458;50.966;7.002;2022-09-28T14:43:56;13.90;99.90
20384;DHT22;46458;50.966;7.002;2022-09-28T14:46:39;13.80;99.90
20384;DHT22;46458;50.966;7.002;2022-09-28T14:52:10;13.20;99.90
20384;DHT22;46458;50.966;7.002;2022-09-28T14:54:52;13.10;99.90
20384;DHT22;46458;50.966;7.002;2022-09-28T14:57:28;13.30;99.90
20384;DHT22;46458;50.966;7.002;2022-09-28T14:59:59;13.20;99.90
20384;DHT22;46458;50.966;7.002;2022-09-28T15:02:30;13.00;99.90
20384;DHT22;46458;50.966;7.002;2022-09-28T15:05:12;13.00;99.90
20384;DHT22;46458;50.966;7.002;2022-09-28T15:07:44;13.00;99.90
20384;DHT22;46458;50.966;7.002;2022-09-28T15:10:27;12.80;99.90
20384;DHT22;46458;50.966;7.002;2022-09-28T15:13:03;12.60;99.90
20384;DHT22;46458;50.966;7.002;2022-09-28T15:15:36;12.40;99.90
20384;DHT22;46458;50.966;7.002;2022-09-28T15:18:23;12.60;99.90
20384;DHT22;46458;50.966;7.002;2022-09-28T15:20:57;12.40;99.90
20384;DHT22;46458;50.966;7.002;2022-09-28T15:23:34;12.50;99.90
20384;DHT22;46458;50.966;7.002;2022-09-28T15:26:05;12.20;99.90
20384;DHT22;46458;50.966;7.002;2022-09-28T15:28:43;11.30;99.90
20384;DHT22;46458;50.966;7.002;2022-09-28T15:31:17;11.50;99.90
20384;DHT22;46458;50.966;7.002;2022-09-28T15:33:46;12.10;99.90
20384;DHT22;46458;50.966;7.002;2022-09-28T15:36:29;12.00;99.90
20384;DHT22;46458;50.966;7.002;2022-09-28T15:39:00;11.90;99.90
20384;DHT22;46458;50.966;7.002;2022-09-28T15:41:30;12.00;99.90
20384;DHT22;46458;50.966;7.002;2022-09-28T15:47:05;12.20;99.90
20384;DHT22;46458;50.966;7.002;2022-09-28T15:49:37;12.40;99.90
20384;DHT22;46458;50.966;7.002;2022-09-28T15:52:25;12.40;99.90
20384;DHT22;46458;50.966;7.002;2022-09-28T15:54:56;12.50;99.90
20384;DHT22;46458;50.966;7.002;2022-09-28T15:57:33;12.50;99.90
20384;DHT22;46458;50.966;7.002;2022-09-28T16:00:22;12.30;99.90
20384;DHT22;46458;50.966;7.002;2022-09-28T16:02:59;12.20;99.90
20384;DHT22;46458;50.966;7.002;2022-09-28T16:05:39;11.80;99.90
20384;DHT22;46458;50.966;7.002;2022-09-28T16:08:15;12.40;99.90
20384;DHT22;46458;50.966;7.002;2022-09-28T16:10:56;12.20;99.90
20384;DHT22;46458;50.966;7.002;2022-09-28T16:13:25;12.10;99.90
20384;DHT22;46458;50.966;7.002;2022-09-28T16:15:58;12.20;99.90
20384;DHT22;46458;50.966;7.002;2022-09-28T16:18:29;12.20;99.90
20384;DHT22;46458;50.966;7.002;2022-09-28T16:21:27;12.20;99.90
20384;DHT22;46458;50.966;7.002;2022-09-28T16:23:59;12.10;99.90
20384;DHT22;46458;50.966;7.002;2022-09-28T16:26:31;12.10;99.90
20384;DHT22;46458;50.966;7.002;2022-09-28T16:29:07;12.00;99.90
20384;DHT22;46458;50.966;7.002;2022-09-28T16:31:53;12.10;99.90
20384;DHT22;46458;50.966;7.002;2022-09-28T16:34:24;12.10;99.90
20384;DHT22;46458;50.966;7.002;2022-09-28T16:36:54;11.90;99.90
20384;DHT22;46458;50.966;7.002;2022-09-28T16:39:23;11.60;99.90
20384;DHT22;46458;50.966;7.002;2022-09-28T16:41:54;11.70;99.90
20384;DHT22;46458;50.966;7.002;2022-09-28T16:44:27;11.60;99.90
20384;DHT22;46458;50.966;7.002;2022-09-28T16:47:00;11.60;99.90
20384;DHT22;46458;50.966;7.002;2022-09-28T16:49:29;11.50;99.90
20384;DHT22;46458;50.966;7.002;2022-09-28T16:51:58;11.50;99.90
20384;DHT22;46458;50.966;7.002;2022-09-28T16:54:28;11.50;99.90
20384;DHT22;46458;50.966;7.002;2022-09-28T16:57:12;11.60;99.90
20384;DHT22;46458;50.966;7.002;2022-09-28T16:59:42;11.70;99.90
20384;DHT22;46458;50.966;7.002;2022-09-28T17:02:17;11.40;99.90
20384;DHT22;46458;50.966;7.002;2022-09-28T17:04:51;11.60;99.90